ROMMA est une association bénévole à but non lucratif. Votre soutien est indispensable : ADHERER à ROMMA ou FAIRE un DON

Die - (26, Drôme)

Diois (400 m)   Longitude: 5° 21' 55"E   Latitude: 44° 45' 16"N Station partenaire n°159
 

Détail journalier du     <<     >>

Température Precipitation Humidité Pression Vent Dir Rafale Dir. rafale Ensol.
Heure (°C) (mm) (%) (hPa) (km/h) (km/h) (min)
01:00 -1.609410312N5N0
02:00 -2.409410312O5NNO0
03:00 -2.4094103103O0
04:00 -2.9094103103O0
05:00 -2.8095103103O0
06:00 -3.009410311O5O0
07:00 -3.309410311NNO5NNO0
08:00 -3.309410311NNO6NNE0
09:00 -3.709410311NNO5NNO0
10:00 -2.209510311NNO5NNO40
11:00 0.209310311O5NNO40
12:00 3.408810302SSO8SSO60
13:00 14.905110296NO15NNO60
14:00 15.204710279NO26NO60
15:00 14.3048102610ONO27NO30
16:00 12.6055102710N24NNO0
17:00 11.705910279NNE21NO0
18:00 10.906210286N18N0
19:00 10.905610297N24NNO0
20:00 10.704710296ENE19ENE0
21:00 5.806410292N10NO0
22:00 4.607010293NO10NO0
23:00 2.108210302E8NO0
minuit 1.208610302SE6S0

Graphique du 07-01-2020

 

Serveur OMMA